createdAt,value
2018-09-02T00:00:33.315Z,9.47
2018-09-02T00:03:02.508Z,11.03
2018-09-02T00:05:30.725Z,13.80
2018-09-02T00:07:59.496Z,12.03
2018-09-02T00:10:27.798Z,12.60
2018-09-02T00:12:56.023Z,13.40
2018-09-02T00:15:24.271Z,13.30
2018-09-02T00:17:52.464Z,14.40
2018-09-02T00:20:20.864Z,11.97
2018-09-02T00:22:49.044Z,11.70
2018-09-02T00:25:17.256Z,16.97
2018-09-02T00:27:45.474Z,14.83
2018-09-02T00:30:13.695Z,15.53
2018-09-02T00:32:41.922Z,13.07
2018-09-02T00:35:10.154Z,14.47
2018-09-02T00:37:38.358Z,17.57
2018-09-02T00:40:06.566Z,15.73
2018-09-02T00:42:34.783Z,14.83
2018-09-02T00:45:02.994Z,16.47
2018-09-02T00:47:31.211Z,18.03
2018-09-02T00:49:59.461Z,18.23
2018-09-02T00:52:27.641Z,15.63
2018-09-02T00:54:55.878Z,13.97
2018-09-02T00:57:24.099Z,16.50
2018-09-02T00:59:52.306Z,14.90
2018-09-02T01:02:20.519Z,11.10
2018-09-02T01:04:48.734Z,13.57
2018-09-02T01:07:16.944Z,15.37
2018-09-02T01:09:45.186Z,15.33
2018-09-02T01:12:13.419Z,11.90
2018-09-02T01:14:41.635Z,14.13
2018-09-02T01:17:09.850Z,13.07
2018-09-02T01:19:38.057Z,13.97
2018-09-02T01:22:06.315Z,10.97
2018-09-02T01:24:34.525Z,14.50
2018-09-02T01:27:02.736Z,13.63
2018-09-02T01:29:30.960Z,14.60
2018-09-02T01:31:59.174Z,16.23
2018-09-02T01:34:27.391Z,15.87
2018-09-02T01:36:55.644Z,15.60
2018-09-02T01:39:23.842Z,16.07
2018-09-02T01:41:52.073Z,15.93
2018-09-02T01:44:20.279Z,13.23
2018-09-02T01:46:48.537Z,12.13
2018-09-02T01:49:16.738Z,13.57
2018-09-02T01:51:44.975Z,16.23
2018-09-02T01:54:13.179Z,16.47
2018-09-02T01:56:41.432Z,16.27
2018-09-02T01:59:09.639Z,15.00
2018-09-02T02:01:37.872Z,18.07
2018-09-02T02:04:06.319Z,13.50
2018-09-02T02:06:34.530Z,18.30
2018-09-02T02:09:02.931Z,13.40
2018-09-02T02:11:31.134Z,16.13
2018-09-02T02:13:59.345Z,18.07
2018-09-02T02:16:27.600Z,15.20
2018-09-02T02:18:55.843Z,17.67
2018-09-02T02:21:24.103Z,17.83
2018-09-02T02:23:52.319Z,19.27
2018-09-02T02:26:20.538Z,18.07
2018-09-02T02:28:48.784Z,15.37
2018-09-02T02:31:16.998Z,18.93
2018-09-02T02:33:45.211Z,18.70
2018-09-02T02:36:13.443Z,18.67
2018-09-02T02:38:41.691Z,14.93
2018-09-02T02:41:09.888Z,11.00
2018-09-02T02:43:38.112Z,17.27
2018-09-02T02:46:06.331Z,18.53
2018-09-02T02:48:34.548Z,15.40
2018-09-02T02:51:02.752Z,18.80
2018-09-02T02:53:30.966Z,16.93
2018-09-02T02:55:59.181Z,16.90
2018-09-02T02:58:27.396Z,16.97
2018-09-02T03:00:55.612Z,14.93
2018-09-02T03:03:23.843Z,12.50
2018-09-02T03:05:52.058Z,16.53
2018-09-02T03:08:20.279Z,22.53
2018-09-02T03:10:48.542Z,13.20
2018-09-02T03:13:16.791Z,17.83
2018-09-02T03:15:44.990Z,19.00
2018-09-02T03:18:13.227Z,17.07
2018-09-02T03:20:41.448Z,20.80
2018-09-02T03:23:09.679Z,20.00
2018-09-02T03:25:37.887Z,23.43
2018-09-02T03:28:06.148Z,21.27
2018-09-02T03:30:34.368Z,21.10
2018-09-02T03:33:02.602Z,18.27
2018-09-02T03:35:30.794Z,19.73
2018-09-02T03:37:59.021Z,21.57
2018-09-02T03:40:27.226Z,17.13
2018-09-02T03:42:55.447Z,22.83
2018-09-02T03:45:23.675Z,18.80
2018-09-02T03:47:51.897Z,16.93
2018-09-02T03:50:20.094Z,16.17
2018-09-02T03:52:48.309Z,16.53
2018-09-02T03:55:16.519Z,17.30
2018-09-02T03:57:44.726Z,18.30
2018-09-02T04:00:12.992Z,16.70
2018-09-02T04:02:41.228Z,17.70
2018-09-02T04:05:09.447Z,18.20
2018-09-02T04:07:37.697Z,18.37
2018-09-02T04:10:05.922Z,16.13
2018-09-02T04:12:34.134Z,18.50
2018-09-02T04:15:02.524Z,19.33
2018-09-02T04:17:30.791Z,16.20
2018-09-02T04:19:58.996Z,13.37
2018-09-02T04:22:27.215Z,14.80
2018-09-02T04:24:55.425Z,17.23
2018-09-02T04:27:23.634Z,13.80
2018-09-02T04:29:51.900Z,14.17
2018-09-02T04:32:20.107Z,17.63
2018-09-02T04:34:48.352Z,13.20
2018-09-02T04:37:16.584Z,13.63
2018-09-02T04:39:44.787Z,14.20
2018-09-02T04:42:13.032Z,14.23
2018-09-02T04:44:41.242Z,12.17
2018-09-02T04:47:09.480Z,13.93
2018-09-02T04:49:37.805Z,14.97
2018-09-02T04:52:06.037Z,12.10
2018-09-02T04:54:34.253Z,14.03
2018-09-02T04:57:02.460Z,10.27
2018-09-02T04:59:30.685Z,9.53
2018-09-02T05:01:58.882Z,11.13
2018-09-02T05:04:27.133Z,10.83
2018-09-02T05:06:55.342Z,13.47
2018-09-02T05:09:23.592Z,15.57
2018-09-02T05:11:51.829Z,17.30
2018-09-02T05:14:20.053Z,11.43
2018-09-02T05:16:48.264Z,15.93
2018-09-02T05:19:16.472Z,15.77
2018-09-02T05:21:44.760Z,16.30
2018-09-02T05:24:13.016Z,17.87
2018-09-02T05:26:41.220Z,18.27
2018-09-02T05:29:09.509Z,17.07
2018-09-02T05:31:37.723Z,13.60
2018-09-02T05:34:05.936Z,16.07
2018-09-02T05:36:34.147Z,12.97
2018-09-02T05:39:02.434Z,10.67
2018-09-02T05:41:30.647Z,12.90
2018-09-02T05:43:58.911Z,9.93
2018-09-02T05:46:27.152Z,10.97
2018-09-02T05:48:55.355Z,14.43
2018-09-02T05:51:23.685Z,9.27
2018-09-02T05:53:51.914Z,14.03
2018-09-02T05:56:20.138Z,9.73
2018-09-02T05:58:48.351Z,9.40
2018-09-02T06:01:16.558Z,8.47
2018-09-02T06:03:44.767Z,10.03
2018-09-02T06:06:12.974Z,7.50
2018-09-02T06:08:41.170Z,8.17
2018-09-02T06:11:09.382Z,7.47
2018-09-02T06:13:37.622Z,6.43
2018-09-02T06:16:05.836Z,6.87
2018-09-02T06:18:34.069Z,6.67
2018-09-02T06:21:02.279Z,5.77
2018-09-02T06:23:30.580Z,6.10
2018-09-02T06:25:58.799Z,5.77
2018-09-02T06:28:27.060Z,7.57
2018-09-02T06:30:55.287Z,5.97
2018-09-02T06:33:23.482Z,5.97
2018-09-02T06:35:51.703Z,6.00
2018-09-02T06:38:19.910Z,5.27
2018-09-02T06:40:48.158Z,5.43
2018-09-02T06:43:16.356Z,5.60
2018-09-02T06:45:44.582Z,6.77
2018-09-02T06:48:15.142Z,10.03
2018-09-02T06:50:43.355Z,6.90
2018-09-02T06:53:11.559Z,5.07
2018-09-02T06:55:39.874Z,7.47
2018-09-02T06:58:09.321Z,6.70
2018-09-02T07:00:37.576Z,5.97
2018-09-02T07:03:05.886Z,5.80
2018-09-02T07:05:38.501Z,4.93
2018-09-02T07:08:07.486Z,7.13
2018-09-02T07:10:35.732Z,5.73
2018-09-02T07:13:04.067Z,4.83
2018-09-02T07:15:32.387Z,4.43
2018-09-02T07:18:00.850Z,5.77
2018-09-02T07:20:29.114Z,6.13
2018-09-02T07:22:57.394Z,3.93
2018-09-02T07:25:25.624Z,5.87
2018-09-02T07:27:55.342Z,4.33
2018-09-02T07:30:23.845Z,5.77
2018-09-02T07:32:52.092Z,4.63
2018-09-02T07:35:20.315Z,3.90
2018-09-02T07:37:48.677Z,6.30
2018-09-02T07:40:21.617Z,4.83
2018-09-02T07:42:50.041Z,4.80
2018-09-02T07:45:19.002Z,4.50
2018-09-02T07:47:47.232Z,4.23
2018-09-02T07:50:16.635Z,4.07
2018-09-02T07:52:44.880Z,5.47
2018-09-02T07:55:13.172Z,4.07
2018-09-02T07:57:41.476Z,3.40
2018-09-02T08:00:10.666Z,5.43
2018-09-02T08:02:39.278Z,5.60
2018-09-02T08:05:07.450Z,4.77
2018-09-02T08:07:35.738Z,4.63
2018-09-02T08:10:04.144Z,4.70
2018-09-02T08:12:32.469Z,4.73
2018-09-02T08:15:00.633Z,3.57
2018-09-02T08:17:28.923Z,3.63
2018-09-02T08:19:57.187Z,4.67
2018-09-02T08:22:25.504Z,3.63
2018-09-02T08:24:53.735Z,4.83
2018-09-02T08:27:22.004Z,6.07
2018-09-02T08:29:51.326Z,5.97
2018-09-02T08:32:19.600Z,3.93
2018-09-02T08:34:47.808Z,3.60
2018-09-02T08:37:16.018Z,3.80
2018-09-02T08:39:44.264Z,3.70
2018-09-02T08:42:12.524Z,3.83
2018-09-02T08:44:40.723Z,4.07
2018-09-02T08:47:09.033Z,3.87
2018-09-02T08:49:37.284Z,4.20
2018-09-02T08:52:06.012Z,4.87
2018-09-02T08:54:34.470Z,5.70
2018-09-02T08:57:02.818Z,3.80
2018-09-02T08:59:31.063Z,3.97
2018-09-02T09:01:59.459Z,4.47
2018-09-02T09:04:29.567Z,4.77
2018-09-02T09:06:57.767Z,3.07
2018-09-02T09:09:25.982Z,3.40
2018-09-02T09:11:54.574Z,3.40
2018-09-02T09:14:22.984Z,4.30
2018-09-02T09:16:51.441Z,5.27
2018-09-02T09:19:19.584Z,4.43
2018-09-02T09:21:47.799Z,3.73
2018-09-02T09:24:16.081Z,3.37
2018-09-02T09:26:44.358Z,3.57
2018-09-02T09:29:12.616Z,5.20
2018-09-02T09:31:40.815Z,3.00
2018-09-02T09:34:09.038Z,3.70
2018-09-02T09:36:37.259Z,3.57
2018-09-02T09:39:07.751Z,3.37
2018-09-02T09:41:36.108Z,5.63
2018-09-02T09:44:04.352Z,3.40
2018-09-02T09:46:32.555Z,4.53
2018-09-02T09:49:00.776Z,3.40
2018-09-02T09:51:29.149Z,3.30
2018-09-02T09:53:57.455Z,3.30
2018-09-02T09:56:25.755Z,4.07
2018-09-02T09:58:53.989Z,3.50
2018-09-02T10:01:22.328Z,4.30
2018-09-02T10:03:50.535Z,3.20
2018-09-02T10:06:18.762Z,3.77
2018-09-02T10:08:47.179Z,4.80
2018-09-02T10:11:15.709Z,4.67
2018-09-02T10:13:43.938Z,6.00
2018-09-02T10:16:12.145Z,4.40
2018-09-02T10:18:40.355Z,5.23
2018-09-02T10:21:08.896Z,4.23
2018-09-02T10:23:37.151Z,4.80
2018-09-02T10:26:07.010Z,5.60
2018-09-02T10:28:35.210Z,4.53
2018-09-02T10:31:04.354Z,4.90
2018-09-02T10:33:32.636Z,6.30
2018-09-02T10:36:00.836Z,6.50
2018-09-02T10:38:29.722Z,5.53
2018-09-02T10:40:58.005Z,6.47
2018-09-02T10:43:27.101Z,4.70
2018-09-02T10:45:55.381Z,5.17
2018-09-02T10:48:23.586Z,6.03
2018-09-02T10:50:51.797Z,6.03
2018-09-02T10:53:20.018Z,5.13
2018-09-02T10:55:48.242Z,4.77
2018-09-02T10:58:16.499Z,6.83
2018-09-02T11:00:44.719Z,6.10
2018-09-02T11:03:12.955Z,6.27
2018-09-02T11:05:41.231Z,7.23
2018-09-02T11:08:09.488Z,5.80
2018-09-02T11:10:37.752Z,7.47
2018-09-02T11:13:06.488Z,6.17
2018-09-02T11:15:34.651Z,5.07
2018-09-02T11:18:02.896Z,4.70
2018-09-02T11:20:31.148Z,5.30
2018-09-02T11:22:59.360Z,5.27
2018-09-02T11:25:27.660Z,4.77
2018-09-02T11:27:55.992Z,4.40
2018-09-02T11:30:24.260Z,5.00
2018-09-02T11:32:52.466Z,5.77
2018-09-02T11:35:20.929Z,4.10
2018-09-02T11:37:49.445Z,5.40
2018-09-02T11:40:17.683Z,6.30
2018-09-02T11:42:45.946Z,4.93
2018-09-02T11:45:14.447Z,4.90
2018-09-02T11:47:42.751Z,4.87
2018-09-02T11:50:10.979Z,5.53
2018-09-02T11:52:39.419Z,5.13
2018-09-02T11:55:07.639Z,5.33
2018-09-02T11:57:35.975Z,4.37
2018-09-02T12:00:04.701Z,5.10
2018-09-02T12:02:33.601Z,5.80
2018-09-02T12:05:04.446Z,7.03
2018-09-02T12:07:34.543Z,5.77
2018-09-02T12:10:03.976Z,6.70
2018-09-02T12:12:32.790Z,4.80
2018-09-02T12:15:04.237Z,5.33
2018-09-02T12:17:32.666Z,4.17
2018-09-02T12:20:03.244Z,5.43
2018-09-02T12:22:31.779Z,5.03
2018-09-02T12:25:00.811Z,5.43
2018-09-02T12:27:29.729Z,4.90
2018-09-02T12:29:59.118Z,4.03
2018-09-02T12:32:27.691Z,7.37
2018-09-02T12:34:55.995Z,5.40
2018-09-02T12:37:24.839Z,4.17
2018-09-02T12:39:53.099Z,4.53
2018-09-02T12:42:21.508Z,4.47
2018-09-02T12:44:49.830Z,5.93
2018-09-02T12:47:18.085Z,4.27
2018-09-02T12:49:46.342Z,3.97
2018-09-02T12:52:14.712Z,3.73
2018-09-02T12:54:43.048Z,4.57
2018-09-02T12:57:12.313Z,4.67
2018-09-02T12:59:42.149Z,5.83
2018-09-02T13:02:10.672Z,4.73
2018-09-02T13:04:38.897Z,4.57
2018-09-02T13:07:11.640Z,3.77
2018-09-02T13:09:39.962Z,3.83
2018-09-02T13:12:08.301Z,5.23
2018-09-02T13:14:36.544Z,4.30
2018-09-02T13:17:04.871Z,6.90
2018-09-02T13:19:33.078Z,4.00
2018-09-02T13:22:06.352Z,3.73
2018-09-02T13:24:36.318Z,4.07
2018-09-02T13:27:04.603Z,4.53
2018-09-02T13:29:35.519Z,4.30
2018-09-02T13:32:03.879Z,5.23
2018-09-02T13:34:32.157Z,4.80
2018-09-02T13:37:00.562Z,4.60
2018-09-02T13:39:28.842Z,4.50
2018-09-02T13:41:58.093Z,4.60
2018-09-02T13:44:26.339Z,4.40
2018-09-02T13:46:55.096Z,4.37
2018-09-02T13:49:23.520Z,4.23
2018-09-02T13:51:51.906Z,5.30
2018-09-02T13:54:20.235Z,4.43
2018-09-02T13:56:48.548Z,4.03
2018-09-02T13:59:20.506Z,4.43
2018-09-02T14:01:49.059Z,4.77
2018-09-02T14:04:17.299Z,4.40
2018-09-02T14:06:45.626Z,4.93
2018-09-02T14:09:14.104Z,3.87
2018-09-02T14:11:42.356Z,3.90
2018-09-02T14:14:10.586Z,3.37
2018-09-02T14:16:39.187Z,5.07
2018-09-02T14:19:07.450Z,3.53
2018-09-02T14:21:41.091Z,4.00
2018-09-02T14:24:09.403Z,4.30
2018-09-02T14:26:38.281Z,3.77
2018-09-02T14:29:06.705Z,3.13
2018-09-02T14:31:36.560Z,4.00
2018-09-02T14:34:04.905Z,3.87
2018-09-02T14:36:33.861Z,5.17
2018-09-02T14:39:02.194Z,5.13
2018-09-02T14:41:31.294Z,4.60
2018-09-02T14:44:02.448Z,4.17
2018-09-02T14:46:35.320Z,4.97
2018-09-02T14:49:03.716Z,4.50
2018-09-02T14:51:32.104Z,6.17
2018-09-02T14:54:00.414Z,6.17
2018-09-02T14:56:29.211Z,4.07
2018-09-02T14:58:58.230Z,4.43
2018-09-02T15:01:26.463Z,4.37
2018-09-02T15:03:54.699Z,5.17
2018-09-02T15:06:23.320Z,5.43
2018-09-02T15:08:51.581Z,11.17
2018-09-02T15:11:19.894Z,6.37
2018-09-02T15:13:48.217Z,5.13
2018-09-02T15:16:17.522Z,5.10
2018-09-02T15:18:46.056Z,4.40
2018-09-02T15:21:14.445Z,5.50
2018-09-02T15:23:42.814Z,4.47
2018-09-02T15:26:11.252Z,4.20
2018-09-02T15:28:39.987Z,5.63
2018-09-02T15:31:08.291Z,5.40
2018-09-02T15:33:39.368Z,4.87
2018-09-02T15:36:07.907Z,5.10
2018-09-02T15:38:36.150Z,5.73
2018-09-02T15:41:05.554Z,6.70
2018-09-02T15:43:40.622Z,5.37
2018-09-02T15:46:12.734Z,4.77
2018-09-02T15:48:41.803Z,8.50
2018-09-02T15:51:10.540Z,5.20
2018-09-02T15:53:40.163Z,8.90
2018-09-02T15:56:08.877Z,5.80
2018-09-02T15:58:40.541Z,6.10
2018-09-02T16:01:08.864Z,5.77
2018-09-02T16:03:40.622Z,6.03
2018-09-02T16:06:09.078Z,7.17
2018-09-02T16:08:37.313Z,6.40
2018-09-02T16:11:05.683Z,5.37
2018-09-02T16:13:33.938Z,5.80
2018-09-02T16:16:02.524Z,7.90
2018-09-02T16:18:31.243Z,6.03
2018-09-02T16:20:59.540Z,5.50
2018-09-02T16:23:27.828Z,8.37
2018-09-02T16:25:56.154Z,6.47
2018-09-02T16:28:25.685Z,7.70
2018-09-02T16:30:53.938Z,5.83
2018-09-02T16:33:27.903Z,6.13
2018-09-02T16:35:56.223Z,5.53
2018-09-02T16:38:24.554Z,5.67
2018-09-02T16:40:52.767Z,6.43
2018-09-02T16:43:21.054Z,6.27
2018-09-02T16:45:49.400Z,5.80
2018-09-02T16:48:36.257Z,7.23
2018-09-02T16:51:04.833Z,6.50
2018-09-02T16:53:33.044Z,6.43
2018-09-02T16:56:01.510Z,6.10
2018-09-02T16:58:29.765Z,6.60
2018-09-02T17:00:58.930Z,5.80
2018-09-02T17:03:31.714Z,7.30
2018-09-02T17:06:00.012Z,4.97
2018-09-02T17:08:28.182Z,6.47
2018-09-02T17:10:56.484Z,6.03
2018-09-02T17:13:31.416Z,8.43
2018-09-02T17:15:59.912Z,5.87
2018-09-02T17:18:28.228Z,6.43
2018-09-02T17:20:56.701Z,5.33
2018-09-02T17:23:24.931Z,5.73
2018-09-02T17:25:53.287Z,7.83
2018-09-02T17:28:21.436Z,5.47
2018-09-02T17:30:49.932Z,5.40
2018-09-02T17:33:18.176Z,5.43
2018-09-02T17:35:46.452Z,5.63
2018-09-02T17:38:14.709Z,5.90
2018-09-02T17:40:42.894Z,5.20
2018-09-02T17:43:11.425Z,5.77
2018-09-02T17:45:39.693Z,7.23
2018-09-02T17:48:07.971Z,5.97
2018-09-02T17:50:36.208Z,7.00
2018-09-02T17:53:04.439Z,5.23
2018-09-02T17:55:32.778Z,5.97
2018-09-02T17:58:01.066Z,5.80
2018-09-02T18:00:35.691Z,5.77
2018-09-02T18:03:03.933Z,7.63
2018-09-02T18:05:32.364Z,6.30
2018-09-02T18:08:00.624Z,5.97
2018-09-02T18:10:29.122Z,8.10
2018-09-02T18:12:57.413Z,6.97
2018-09-02T18:15:25.913Z,5.33
2018-09-02T18:17:54.521Z,8.00
2018-09-02T18:20:22.771Z,6.77
2018-09-02T18:23:09.226Z,7.37
2018-09-02T18:25:37.453Z,8.43
2018-09-02T18:28:08.128Z,6.20
2018-09-02T18:30:36.395Z,6.67
2018-09-02T18:33:04.766Z,6.83
2018-09-02T18:35:33.058Z,6.07
2018-09-02T18:38:01.308Z,6.23
2018-09-02T18:40:29.586Z,8.50
2018-09-02T18:42:57.876Z,7.27
2018-09-02T18:45:26.269Z,7.33
2018-09-02T18:47:54.468Z,6.80
2018-09-02T18:50:22.694Z,6.03
2018-09-02T18:52:50.932Z,7.20
2018-09-02T18:55:19.208Z,7.80
2018-09-02T18:57:47.450Z,7.57
2018-09-02T19:00:15.762Z,9.73
2018-09-02T19:02:44.033Z,10.17
2018-09-02T19:05:12.358Z,8.37
2018-09-02T19:07:40.739Z,8.73
2018-09-02T19:10:08.997Z,8.67
2018-09-02T19:12:37.302Z,8.23
2018-09-02T19:15:05.918Z,6.23
2018-09-02T19:17:34.150Z,7.00
2018-09-02T19:20:02.411Z,7.63
2018-09-02T19:22:30.824Z,7.07
2018-09-02T19:24:59.232Z,7.70
2018-09-02T19:27:27.675Z,7.17
2018-09-02T19:29:56.195Z,8.93
2018-09-02T19:32:24.574Z,7.40
2018-09-02T19:34:52.824Z,9.07
2018-09-02T19:37:21.316Z,7.80
2018-09-02T19:39:49.713Z,6.77
2018-09-02T19:42:18.105Z,7.93
2018-09-02T19:44:46.335Z,7.17
2018-09-02T19:47:14.598Z,6.20
2018-09-02T19:49:42.860Z,6.80
2018-09-02T19:52:11.248Z,6.67
2018-09-02T19:54:39.682Z,6.23
2018-09-02T19:57:08.080Z,6.40
2018-09-02T19:59:36.354Z,8.87
2018-09-02T20:02:04.728Z,6.30
2018-09-02T20:04:33.032Z,8.53
2018-09-02T20:07:01.238Z,6.43
2018-09-02T20:09:32.776Z,8.10
2018-09-02T20:12:01.484Z,12.17
2018-09-02T20:14:29.884Z,7.50
2018-09-02T20:16:58.265Z,11.47
2018-09-02T20:19:26.653Z,8.53
2018-09-02T20:21:54.871Z,7.40
2018-09-02T20:24:23.123Z,6.30
2018-09-02T20:26:51.696Z,7.10
2018-09-02T20:29:19.956Z,5.63
2018-09-02T20:31:48.164Z,5.83
2018-09-02T20:34:16.386Z,8.33
2018-09-02T20:36:44.615Z,7.27
2018-09-02T20:39:12.872Z,6.83
2018-09-02T20:41:41.116Z,7.33
2018-09-02T20:44:09.304Z,6.83
2018-09-02T20:46:37.746Z,6.10
2018-09-02T20:49:06.208Z,5.73
2018-09-02T20:51:34.508Z,6.40
2018-09-02T20:54:02.731Z,7.13
2018-09-02T20:56:30.999Z,7.40
2018-09-02T20:58:59.633Z,6.97
2018-09-02T21:01:27.867Z,6.47
2018-09-02T21:03:56.070Z,6.30
2018-09-02T21:06:24.279Z,5.97
2018-09-02T21:08:52.534Z,5.70
2018-09-02T21:11:20.776Z,6.20
2018-09-02T21:13:49.029Z,7.03
2018-09-02T21:16:17.296Z,6.97
2018-09-02T21:18:45.560Z,6.77
2018-09-02T21:21:13.820Z,9.57
2018-09-02T21:23:42.080Z,6.33
2018-09-02T21:26:10.372Z,7.37
2018-09-02T21:28:38.605Z,9.07
2018-09-02T21:31:06.848Z,6.20
2018-09-02T21:33:35.074Z,6.30
2018-09-02T21:36:03.291Z,6.03
2018-09-02T21:38:31.540Z,5.97
2018-09-02T21:40:59.737Z,5.87
2018-09-02T21:43:27.966Z,6.40
2018-09-02T21:45:56.207Z,7.23
2018-09-02T21:48:24.448Z,6.37
2018-09-02T21:50:52.778Z,6.13
2018-09-02T21:53:21.089Z,6.87
2018-09-02T21:55:49.294Z,7.73
2018-09-02T21:58:17.716Z,6.50
2018-09-02T22:00:45.964Z,7.13
2018-09-02T22:03:14.184Z,6.50
2018-09-02T22:05:42.484Z,7.53
2018-09-02T22:08:10.716Z,7.70
2018-09-02T22:10:39.114Z,11.80
2018-09-02T22:13:07.387Z,6.90
2018-09-02T22:15:35.840Z,7.63
2018-09-02T22:18:04.379Z,7.07
2018-09-02T22:20:32.598Z,7.50
2018-09-02T22:23:00.814Z,8.00
2018-09-02T22:25:29.140Z,7.93
2018-09-02T22:27:57.357Z,11.33
2018-09-02T22:30:25.618Z,7.50
2018-09-02T22:32:58.285Z,12.47
2018-09-02T22:35:26.522Z,10.70
2018-09-02T22:37:55.499Z,8.30
2018-09-02T22:40:23.750Z,8.83
2018-09-02T22:42:51.993Z,9.40
2018-09-02T22:45:20.236Z,8.40
2018-09-02T22:47:48.562Z,8.33
2018-09-02T22:50:16.791Z,8.03
2018-09-02T22:52:44.994Z,7.87
2018-09-02T22:55:13.651Z,8.73
2018-09-02T22:57:41.925Z,9.90
2018-09-02T23:00:10.104Z,8.23
2018-09-02T23:02:38.446Z,8.87
2018-09-02T23:05:08.199Z,9.37
2018-09-02T23:07:36.440Z,8.43
2018-09-02T23:10:07.112Z,8.13
2018-09-02T23:12:35.390Z,9.23
2018-09-02T23:15:04.376Z,8.87
2018-09-02T23:17:33.556Z,9.77
2018-09-02T23:20:01.814Z,9.17
2018-09-02T23:22:30.942Z,8.70
2018-09-02T23:24:59.523Z,9.07
2018-09-02T23:27:27.832Z,12.37
2018-09-02T23:29:56.043Z,9.30
2018-09-02T23:32:24.408Z,8.87
2018-09-02T23:34:52.672Z,8.27
2018-09-02T23:37:20.917Z,9.70
2018-09-02T23:39:49.147Z,11.67
2018-09-02T23:42:17.391Z,10.30
2018-09-02T23:44:45.604Z,15.70
2018-09-02T23:47:13.914Z,10.43
2018-09-02T23:49:42.119Z,12.33
2018-09-02T23:52:10.394Z,13.47
2018-09-02T23:54:38.632Z,13.03
2018-09-02T23:57:06.936Z,12.00
2018-09-02T23:59:35.135Z,10.87
